STORKMARKNES/SKAGEN current weather conditions

sailwx.info

Wind at 1 knots

Air temperature -0.0° C
Visibility: greater than 5.4 NM
Dewpoint -0.0° C
Present weather: Showers in the vicinity.

Last reported at 2020-Jan-25 09:50 UTC.
Time now 2020-Jan-25 10:56 UTC

Location: N 68°35' E 015°01'.
View on Google Maps.

See reports from other nearby stations

  
Tides and Currents Weather Stations Pressure Air Temp Water Temp Dewpoint Dewpoint Depression Visibility Wind Speed Wind Dir Waves Ship Positions
date/time (UTC)wind fromknots sea level pressurealtimeterstation pressurevisibilityair tempwater tempwave heightnotes
2020-Jan-25 09:50 5.4-0.0 Showers in the vicinity.
2020-Jan-24 22:20 170 4 5.4-0.0 Light snow showers.
2020-Jan-24 21:50 240 1 5.4-1.0 Light snow.
2020-Jan-24 21:20 1.6-1.0 Light snow.
2020-Jan-24 20:50 320 5 0.6-1.0 Snow.
2020-Jan-24 20:20 2.2-1.0 Light snow showers.
2020-Jan-24 19:50 070 1 5.4-1.0 Light snow showers.
2020-Jan-24 19:20 040 1 2.2-1.0 Light snow showers.
2020-Jan-24 18:50 340 5 0.6-1.0 Snow showers.
2020-Jan-24 18:20 020 2 5.4-2.0 Showers in the vicinity.
2020-Jan-24 17:50 5.4-2.0 Showers in the vicinity.
2020-Jan-24 16:50 020 1 5.4-2.0 Showers in the vicinity.
2020-Jan-24 16:20 310 6 1.1-1.0 Snow showers.
2020-Jan-24 15:50 310 2 5.4-1.0 Showers in the vicinity.
2020-Jan-24 15:20 340 4 5.4-2.0
2020-Jan-24 14:50 360 4 5.4-2.0
2020-Jan-24 14:20 040 4 5.4-0.0
2020-Jan-24 13:50 120 6 5.4 2.0
2020-Jan-24 13:20 140 8 5.4 1.0
2020-Jan-24 12:50 010 2 5.4 1.0
2020-Jan-24 12:20 170 8 5.4 1.0
2020-Jan-24 11:50 160 8 5.4 1.0
2020-Jan-24 11:20 200 6 5.4 1.0
2020-Jan-24 10:50 190 8 5.4 1.0
2020-Jan-24 10:20 220 7 5.4-1.0
2020-Jan-24 09:50 240 8 5.4-1.0
2020-Jan-24 09:20 270 5 5.4-0.0
2020-Jan-24 08:50 220 6 5.4 1.0 Showers in the vicinity.
2020-Jan-24 08:20 200 7 5.4-0.0 Light snow showers. Small hail/snow pellets.
2020-Jan-24 07:50 220 6 5.4 1.0 Light snow showers. Small hail/snow pellets.
2020-Jan-24 07:20 120 7 5.4-0.0 Light snow showers.
2020-Jan-24 06:50 110 2 5.4-0.0 Light snow showers.
2020-Jan-23 21:50 240 6 5.4 1.0 Light rain showers.
2020-Jan-23 21:20 260 17 0.8 1.0 Snow showers.
2020-Jan-23 20:50 300 13 5.4 2.0 Showers in the vicinity.
2020-Jan-23 20:20 280 6 gusting 17 5.4 2.0 Light small hail/snow pellets. Rain.
2020-Jan-23 19:50 230 13 5.4 2.0 Light rain showers. Small hail/snow pellets.
2020-Jan-23 19:20 270 13 5.4 4.0 Light rain showers.
2020-Jan-23 18:50 280 18 5.4 2.0 Showers in the vicinity.
2020-Jan-23 18:20 290 12 5.4 2.0 Showers in the vicinity.
2020-Jan-23 17:50 220 14 5.4 3.0 Light rain showers.
2020-Jan-23 17:20 240 15 5.4 3.0 Light rain showers.
2020-Jan-23 16:50 220 9 5.4 4.0 Showers in the vicinity.
2020-Jan-23 16:20 270 6 5.4 3.0 Showers in the vicinity.
2020-Jan-23 15:50 290 11 5.4 3.0 Showers in the vicinity.
2020-Jan-23 15:20 220 15 5.4 3.0 Light rain showers.
2020-Jan-23 14:50 250 12 5.4 4.0 Light rain showers.
2020-Jan-23 14:20 300 6 5.4 2.0 Light rain showers.
2020-Jan-23 13:50 280 8 5.4 2.0 Light rain showers.
2020-Jan-23 13:20 290 14 4.9 2.0 Light rain showers.
2020-Jan-23 12:50 250 18 4.3 4.0 Light rain showers.
2020-Jan-23 12:20 250 18 5.4 5.0 Light rain showers.
2020-Jan-23 11:50 260 18 5.4 6.0 Light rain showers.
2020-Jan-23 11:20 220 9 5.4 6.0 Showers in the vicinity.
2020-Jan-23 10:50 5.4 4.0 Showers in the vicinity.
2020-Jan-23 10:20 170 6 5.4 3.0 Rain showers.